Catàleg de serveis del Meteocat
Campanya meteocatpedra

Dades de l'estació automàtica la Tosa d'Alp 2500

?
?
Resum diari 21:30 TU
Dades diàries de l'estació meteorològica
Temperatura mitjana -4.7 °C
Temperatura màxima -2.9 °C 14:48 TU
Temperatura mínima -6.0 °C 0:28 TU
Humitat relativa mitjana 73%
Ratxa màxima del vent (10 m) 45.0 km/h - 353º 9:28 TU
Irradiació solar global 10.1 MJ/m2

El tram horari està expressat en Temps Universal (TU). Cal sumar una hora en horari d'hivern i dues en horari d'estiu per passar a l'hora oficial.

la Tosa d'Alp 2500

Metadades estació meteorol´gica
Municipi Alp
Comarca Cerdanya
Altitud 2478 m
Data alta 04.09.2014
Estat actual Operativa
Dades de període
Període
TU
TM
°C
TX
°C
TN
°C
HRM
%
VVM (10 m)
km/h
DVM (10 m)
graus
VVX (10 m)
km/h
RS
W/m2
00:00 - 00:30 -5.8 -5.6 -6.0 98 23.4 292 32.8 0
00:30 - 01:00 -5.7 -5.6 -5.9 97 22.7 294 29.5 0
01:00 - 01:30 -5.5 -5.4 -5.7 93 13.7 308 22.3 0
01:30 - 02:00 -5.2 -4.5 -5.4 86 7.9 252 11.9 0
02:00 - 02:30 -5.5 -5.3 -5.6 89 10.1 271 15.5 0
02:30 - 03:00 -5.6 -5.5 -5.7 90 9.0 300 15.8 0
03:00 - 03:30 -5.3 -4.7 -5.6 84 7.6 285 12.6 0
03:30 - 04:00 -5.1 -4.5 -5.6 82 4.7 294 8.6 0
04:00 - 04:30 -5.6 -5.6 -5.7 88 4.0 327 7.2 0
04:30 - 05:00 -4.8 -4.3 -5.7 72 5.8 232 12.6 0
05:00 - 05:30 -5.2 -4.9 -5.4 77 2.9 331 7.9 0
05:30 - 06:00 -5.1 -4.9 -5.3 73 4.3 340 10.4 0
06:00 - 06:30 -5.3 -5.2 -5.5 77 6.8 350 12.6 0
06:30 - 07:00 -5.4 -5.3 -5.5 80 18.4 359 32.0 10
07:00 - 07:30 -5.4 -5.0 -5.6 82 20.5 357 31.0 32
07:30 - 08:00 -4.8 -4.4 -5.2 74 32.0 346 42.8 44
08:00 - 08:30 -5.0 -4.5 -5.4 80 29.9 348 44.3 72
08:30 - 09:00 -5.5 -5.4 -5.6 91 25.6 356 37.4 81
09:00 - 09:30 -5.3 -5.0 -5.4 89 31.7 355 45.0 294
09:30 - 10:00 -5.1 -5.0 -5.2 91 25.2 351 42.8 436
10:00 - 10:30 -5.1 -5.0 -5.2 92 14.8 349 21.6 282
10:30 - 11:00 -4.7 -4.5 -5.0 89 11.5 338 16.9 390
11:00 - 11:30 -4.3 -3.9 -4.6 82 14.0 331 23.4 514
11:30 - 12:00 -4.1 -3.9 -4.2 75 15.8 323 23.8 403
12:00 - 12:30 -4.3 -4.1 -4.4 80 19.1 329 27.7 512
12:30 - 13:00 -4.2 -4.0 -4.4 78 20.5 328 30.2 578
13:00 - 13:30 -3.9 -3.7 -4.1 75 18.7 313 28.4 528
13:30 - 14:00 -3.6 -3.5 -3.7 67 19.1 312 26.6 465
14:00 - 14:30 -3.6 -3.3 -3.8 66 16.6 306 26.6 394
14:30 - 15:00 -3.2 -2.9 -3.4 63 14.4 289 25.6 316
15:00 - 15:30 -3.5 -3.3 -3.6 65 25.6 293 36.0 230
15:30 - 16:00 -3.8 -3.6 -3.9 65 23.0 305 34.9 103
16:00 - 16:30 -3.8 -3.8 -3.9 59 25.9 305 35.6 13
16:30 - 17:00 -4.1 -3.9 -4.4 58 23.0 294 35.6 0
17:00 - 17:30 -4.5 -4.4 -4.7 59 28.1 294 39.6 0
17:30 - 18:00 -4.3 -4.1 -4.4 46 23.0 285 28.4 0
18:00 - 18:30 -4.5 -4.1 -4.8 48 19.1 255 30.2 0
18:30 - 19:00 -4.9 -4.8 -5.0 50 22.7 248 34.2 0
19:00 - 19:30 -4.7 -4.3 -4.9 48 23.4 254 33.5 0
19:30 - 20:00 -4.8 -4.4 -4.9 48 28.1 264 39.2 0
20:00 - 20:30 -4.4 -4.1 -4.5 43 25.9 246 35.3 0
20:30 - 21:00 -4.0 -3.8 -4.3 50 22.0 234 34.6 0
21:00 - 21:30 -3.9 -3.7 -4.0 47 25.6 239 36.7 0
21:30 - 22:00 -4.2 -3.8 -4.4 52 22.7 224 33.8 0

Les dades en taronja només han passat un control de qualitat automàtic. Resta pendent la seva validació definitiva.